Aeroporto :
LOGIN :

Iscrizione | Disclaimer

   EN    FR    IT 

 










Sommario :    VFR   VFR Marginale   IFR   IFR Intensivo   IFR Molto Intensivo
Visibilità : 
Base nubi : 
>= 8 km
>= 3000ft
5 / 8 km
1000 / 3000 ft
1500m / 5 km
500 / 1000 ft
800 / 1500m
200 / 500 ft
< 800m
< 200 ft
Simboli :   Temporali  Nebbia  Neve Forte  Precipitazioni Forti  Vento > 20 kt
SIGMETs :   Varie  Temporali  Ghiacco  Turbolenza  Onda orograficha  Ceneri Vulcaniche






- Altitudine del aeroporto : 38 ft
- Codice IATA : BOH


EGHH - Bournemouth

ULTIMO METAR :
  • 211850Z 17011KT 130V200 6000 -RA FEW007 BKN009 09/08 Q0997

METARs OBSOLETI :
  • 211820Z 16006KT 130V200 8000 -RA FEW004 SCT007 BKN011 09/08 Q0997 RERA
  • 211750Z 14006KT 100V180 6000 RA FEW004 BKN008 09/08 Q0997
  • 211720Z 11008KT 4500 RA BR BKN006 09/08 Q0997
  • 211650Z 12009KT 4000 RA BR BKN007 09/08 Q0997
  • 211620Z 13011KT 4000 -RA BR BKN010 09/08 Q0997

TAF AMD TAF EGHH
Valido dal 21 a 18 ore il 22 a 03 ore UTC


211829Z 2118/2203 12008KT 8000 FEW004 BKN008
TEMPO 2118/2121 4000 RA BR BKN004
BECMG 2121/2124 9999 SCT010
PROB30
TEMPO 2121/2203 4000 +SHRA
ATIS : +44 1202 364 151
Met : +44 1202 364 158 (TAF)



MetMap, La meteo Aeronautica in un colpo d'occhio ! - Copyright ORBIFLY Dicembre 2007 - Disclaimer

ORBIFLY MET'MAP TEAM :

Programmazione e sviluppo : Alexandra Zaïnal
Concezione e sviluppo : Baudouin d'Aumeries
Co-Programmazione e sviluppo : Marc-Olivier Méhu
Supporto tecnico e logistico : Manuel Goepfert
Aiuto per la traduzione : Arnaldo La Scala

Contatto : metmap@orbifly.com




FONTI E CREDITI :

   NOAA